Time;durP1;ratioP1;P1;durP2;ratioP2;P2;SDS_P1;SDS_P2;PMS_P1;PMS_P2;Temp;Humidity;BMP_temperature;BMP_pressure;BME280_temperature;BME280_humidity;BME280_pressure;Samples;Min_cycle;Max_cycle;Signal;HPM_P1;HPM_P2
2022/03/22 00:02:09;;;;;;;0.40;0.40;;;5.50;90.80;;;;;;5035468;28;20449;-91
2022/03/22 00:04:34;;;;;;;0.40;0.40;;;5.40;91.60;;;;;;5034775;28;20906;-91
2022/03/22 00:07:00;;;;;;;0.37;0.37;;;5.40;91.10;;;;;;5035142;28;20615;-91
2022/03/22 00:09:25;;;;;;;0.30;0.30;;;5.50;91.10;;;;;;5034170;28;20223;-91
2022/03/22 00:11:51;;;;;;;0.40;0.40;;;5.60;90.40;;;;;;5035610;28;20213;-92
2022/03/22 00:14:17;;;;;;;0.40;0.40;;;5.60;90.20;;;;;;5035056;28;20194;-91
2022/03/22 00:16:43;;;;;;;0.40;0.40;;;5.50;91.50;;;;;;5035243;28;20716;-91
2022/03/22 00:19:09;;;;;;;0.40;0.40;;;5.40;90.90;;;;;;5035293;28;20449;-91
2022/03/22 00:21:35;;;;;;;0.40;0.40;;;5.40;91.00;;;;;;5035064;28;20434;-91
2022/03/22 00:24:01;;;;;;;0.40;0.40;;;5.40;90.90;;;;;;5035184;28;20269;-90
2022/03/22 00:26:27;;;;;;;0.40;0.40;;;5.40;90.40;;;;;;5033939;28;20478;-91
2022/03/22 00:28:53;;;;;;;0.30;0.30;;;5.20;91.70;;;;;;5033958;28;21053;-91
2022/03/22 00:31:19;;;;;;;0.30;0.30;;;5.30;90.60;;;;;;5034841;28;20266;-92
2022/03/22 00:33:44;;;;;;;0.40;0.40;;;5.20;90.60;;;;;;5034648;28;20200;-91
2022/03/22 00:36:13;;;;;;;0.40;0.40;;;5.30;90.30;;;;;;5034755;28;20895;-90
2022/03/22 00:38:40;;;;;;;0.30;0.30;;;5.20;90.20;;;;;;5034397;28;20221;-91
2022/03/22 00:41:05;;;;;;;0.40;0.40;;;5.20;90.30;;;;;;5035273;28;20961;-91
2022/03/22 00:43:34;;;;;;;0.40;0.40;;;5.10;91.00;;;;;;5033953;28;20542;-92
2022/03/22 00:46:00;;;;;;;0.40;0.40;;;5.10;90.70;;;;;;5049129;28;20233;-91
2022/03/22 00:48:26;;;;;;;0.40;0.40;;;5.10;91.00;;;;;;5054455;28;20456;-92
2022/03/22 00:50:51;;;;;;;0.40;0.40;;;5.10;90.80;;;;;;5045975;28;20484;-94
2022/03/22 00:53:18;;;;;;;0.40;0.40;;;5.00;91.10;;;;;;5040308;28;20195;-94
2022/03/22 00:55:45;;;;;;;0.40;0.40;;;4.90;91.40;;;;;;5034233;28;20207;-94
2022/03/22 00:58:11;;;;;;;0.40;0.40;;;4.90;91.40;;;;;;5034046;28;20418;-92
2022/03/22 01:00:37;;;;;;;0.40;0.40;;;4.80;91.70;;;;;;5042641;28;20423;-93
2022/03/22 01:03:05;;;;;;;0.40;0.40;;;4.70;92.20;;;;;;5034259;28;20215;-93
2022/03/22 01:05:31;;;;;;;0.40;0.40;;;4.70;92.30;;;;;;5035663;28;20442;-91
2022/03/22 01:07:59;;;;;;;0.30;0.30;;;4.70;92.60;;;;;;5034369;28;20458;-91
2022/03/22 01:10:27;;;;;;;0.40;0.40;;;4.50;93.70;;;;;;5034768;28;20430;-94
2022/03/22 01:12:53;;;;;;;0.40;0.40;;;4.60;93.50;;;;;;5034594;28;20433;-94
2022/03/22 01:15:25;;;;;;;0.50;0.50;;;4.40;93.10;;;;;;5027249;28;20944;-94
2022/03/22 01:17:54;;;;;;;0.40;0.40;;;4.40;93.00;;;;;;5030899;28;20532;-94
2022/03/22 01:20:22;;;;;;;0.40;0.40;;;4.50;93.30;;;;;;5034298;28;20417;-93
2022/03/22 01:22:49;;;;;;;0.40;0.40;;;4.50;93.70;;;;;;5033943;28;20438;-94
2022/03/22 01:25:18;;;;;;;0.30;0.30;;;4.60;92.90;;;;;;5033547;28;20430;-93
2022/03/22 01:27:48;;;;;;;0.40;0.40;;;4.60;91.90;;;;;;5033047;28;20438;-92
2022/03/22 01:30:19;;;;;;;0.40;0.40;;;4.60;92.30;;;;;;5034378;28;20424;-94
2022/03/22 01:32:45;;;;;;;0.40;0.40;;;4.70;91.80;;;;;;5033684;28;20878;-93
2022/03/22 01:35:10;;;;;;;0.40;0.40;;;4.40;92.10;;;;;;5036128;28;20451;-94
2022/03/22 01:37:37;;;;;;;0.40;0.40;;;4.40;91.80;;;;;;5035768;28;20932;-94
2022/03/22 01:40:07;;;;;;;0.40;0.40;;;4.60;92.20;;;;;;5043662;28;20176;-94
2022/03/22 01:42:33;;;;;;;0.40;0.40;;;4.50;92.10;;;;;;5039371;28;20457;-94
2022/03/22 01:44:59;;;;;;;0.40;0.40;;;4.50;92.40;;;;;;5043547;28;20469;-94
2022/03/22 01:47:25;;;;;;;0.40;0.40;;;4.40;92.80;;;;;;5033822;28;20430;-92
2022/03/22 01:49:51;;;;;;;0.40;0.40;;;4.30;93.10;;;;;;5032721;28;20327;-94
2022/03/22 01:52:20;;;;;;;0.40;0.40;;;4.10;93.10;;;;;;5019501;28;20184;-94
2022/03/22 01:54:50;;;;;;;0.50;0.50;;;4.10;93.60;;;;;;5033111;28;20984;-94
2022/03/22 01:57:19;;;;;;;0.30;0.30;;;4.20;93.30;;;;;;5033227;28;20422;-95
2022/03/22 01:59:46;;;;;;;0.40;0.40;;;4.30;93.00;;;;;;5032990;28;20454;-94
2022/03/22 02:07:44;;;;;;;1.23;1.23;;;4.20;93.70;;;;;;5032315;28;20445;-94
2022/03/22 02:10:10;;;;;;;1.10;1.10;;;4.10;94.40;;;;;;5033264;28;20446;-94
2022/03/22 02:12:35;;;;;;;0.80;0.80;;;3.90;95.60;;;;;;5033074;28;20410;-94
2022/03/22 02:15:01;;;;;;;1.53;1.53;;;3.90;95.10;;;;;;5033377;28;20187;-94
2022/03/22 02:17:27;;;;;;;1.23;1.23;;;3.90;95.40;;;;;;5033559;28;20182;-94
2022/03/22 02:19:53;;;;;;;0.70;0.70;;;4.00;94.90;;;;;;5033354;28;20668;-93
2022/03/22 02:22:22;;;;;;;0.70;0.70;;;4.10;94.70;;;;;;5031902;28;20187;-94
2022/03/22 02:24:47;;;;;;;0.80;0.80;;;3.90;94.60;;;;;;5031694;28;20449;-94
2022/03/22 02:27:13;;;;;;;0.93;0.93;;;3.90;95.40;;;;;;5032992;28;21181;-95
2022/03/22 02:29:38;;;;;;;0.60;0.60;;;3.90;95.00;;;;;;5033199;28;20218;-94
2022/03/22 02:32:07;;;;;;;0.60;0.60;;;3.70;95.60;;;;;;5033053;28;20655;-93
2022/03/22 02:34:35;;;;;;;0.50;0.50;;;3.90;95.60;;;;;;5032581;28;20670;-93
2022/03/22 02:37:01;;;;;;;0.50;0.50;;;3.90;95.00;;;;;;5033114;28;20903;-94
2022/03/22 02:39:26;;;;;;;0.50;0.50;;;4.00;95.00;;;;;;5032082;28;20492;-93
2022/03/22 02:41:52;;;;;;;0.50;0.50;;;3.80;95.40;;;;;;5032953;28;20183;-94
2022/03/22 02:44:19;;;;;;;0.50;0.50;;;3.80;95.40;;;;;;5033525;28;20187;-93
2022/03/22 02:46:45;;;;;;;0.40;0.40;;;4.00;94.80;;;;;;5049040;28;20654;-94
2022/03/22 02:49:12;;;;;;;0.50;0.50;;;3.90;95.00;;;;;;5033015;28;20599;-94
2022/03/22 02:51:37;;;;;;;0.50;0.50;;;3.90;95.10;;;;;;5033244;28;20411;-94
2022/03/22 02:54:03;;;;;;;0.50;0.50;;;3.90;94.80;;;;;;5036816;28;20784;-94
2022/03/22 02:56:28;;;;;;;0.40;0.40;;;3.80;94.40;;;;;;5024920;28;20624;-94
2022/03/22 02:58:54;;;;;;;0.50;0.50;;;4.00;94.50;;;;;;5019330;28;20193;-94
2022/03/22 03:01:19;;;;;;;0.50;0.50;;;4.20;92.90;;;;;;5036555;28;20701;-93
2022/03/22 03:03:45;;;;;;;0.40;0.40;;;4.20;93.60;;;;;;5043538;28;20170;-94
2022/03/22 03:06:12;;;;;;;0.50;0.50;;;4.10;93.90;;;;;;5048142;28;20214;-94
2022/03/22 03:08:37;;;;;;;0.50;0.50;;;4.10;94.50;;;;;;5048260;28;20603;-94
2022/03/22 03:11:03;;;;;;;0.40;0.40;;;4.20;93.90;;;;;;5030144;28;20442;-94
2022/03/22 03:14:38;;;;;;;0.40;0.40;;;4.40;92.50;;;;;;5022215;28;20180;-93
2022/03/22 03:16:14;;;;;;;0.40;0.40;;;4.20;93.20;;;;;;5016602;28;20198;-93
2022/03/22 03:18:39;;;;;;;0.40;0.40;;;4.00;94.80;;;;;;5016758;28;20911;-94
2022/03/22 03:21:05;;;;;;;0.40;0.40;;;3.90;94.90;;;;;;5017193;28;20181;-94
2022/03/22 03:23:31;;;;;;;0.40;0.40;;;3.70;95.60;;;;;;5029805;28;20248;-94
2022/03/22 03:25:56;;;;;;;0.47;0.47;;;3.70;95.50;;;;;;5038777;28;20421;-94
2022/03/22 03:28:22;;;;;;;0.43;0.43;;;3.80;95.30;;;;;;5041827;28;20268;-93
2022/03/22 03:30:47;;;;;;;0.40;0.40;;;3.60;95.70;;;;;;5038532;28;20186;-94
2022/03/22 03:33:13;;;;;;;0.40;0.40;;;3.50;96.20;;;;;;5054268;28;20247;-93
2022/03/22 03:35:38;;;;;;;0.50;0.50;;;3.60;96.50;;;;;;5022399;28;20562;-94
2022/03/22 03:38:04;;;;;;;0.50;0.50;;;3.60;95.60;;;;;;5036285;28;20188;-94
2022/03/22 03:41:53;;;;;;;0.50;0.50;;;3.60;95.80;;;;;;5035710;28;20268;-94
2022/03/22 03:43:15;;;;;;;0.40;0.40;;;3.60;96.40;;;;;;5038954;28;20186;-93
2022/03/22 03:48:24;;;;;;;0.50;0.50;;;3.40;97.30;;;;;;5040152;28;20214;-94
2022/03/22 03:50:50;;;;;;;0.47;0.47;;;3.50;97.00;;;;;;5035971;28;20426;-93
2022/03/22 03:53:15;;;;;;;0.50;0.50;;;3.50;97.30;;;;;;5036341;28;20176;-94
2022/03/22 03:55:41;;;;;;;0.50;0.50;;;3.50;97.10;;;;;;5018336;28;20314;-94
2022/03/22 03:58:07;;;;;;;0.40;0.40;;;3.50;96.70;;;;;;5035074;28;20682;-94
2022/03/22 04:00:32;;;;;;;0.50;0.50;;;3.50;96.50;;;;;;5035525;28;20422;-93
2022/03/22 04:02:58;;;;;;;0.50;0.50;;;3.50;96.90;;;;;;5035823;28;20187;-94
2022/03/22 04:05:23;;;;;;;0.50;0.50;;;3.30;96.80;;;;;;5035526;28;20266;-94
2022/03/22 04:07:49;;;;;;;0.47;0.47;;;3.30;97.40;;;;;;5035494;28;20683;-94
2022/03/22 04:10:14;;;;;;;0.50;0.50;;;3.10;97.30;;;;;;5035627;28;20227;-94
2022/03/22 04:12:44;;;;;;;0.40;0.40;;;2.90;98.30;;;;;;5046755;28;20195;-94
2022/03/22 04:15:10;;;;;;;0.40;0.40;;;3.10;98.10;;;;;;5043789;28;20183;-94
2022/03/22 04:17:36;;;;;;;0.40;0.40;;;3.20;97.60;;;;;;5039719;28;20984;-94
2022/03/22 04:20:02;;;;;;;0.50;0.50;;;3.10;97.70;;;;;;5055103;28;20190;-94
2022/03/22 04:22:27;;;;;;;0.40;0.40;;;3.00;98.40;;;;;;5055141;28;20253;-94
2022/03/22 04:24:53;;;;;;;0.50;0.50;;;3.10;98.30;;;;;;5049090;28;20533;-95
2022/03/22 04:32:48;;;;;;;0.50;0.50;;;2.70;99.30;;;;;;5046911;28;20452;-93
2022/03/22 04:35:19;;;;;;;0.50;0.50;;;2.60;99.90;;;;;;5034513;28;20522;-94
2022/03/22 04:37:49;;;;;;;0.50;0.50;;;2.50;99.90;;;;;;5017197;28;20178;-93
2022/03/22 04:40:14;;;;;;;0.50;0.50;;;2.70;99.90;;;;;;5019772;28;20443;-93
2022/03/22 04:42:41;;;;;;;0.50;0.50;;;2.60;99.90;;;;;;5029575;28;20422;-93
2022/03/22 04:45:07;;;;;;;0.43;0.43;;;2.50;99.90;;;;;;5034493;28;20219;-93
2022/03/22 04:47:35;;;;;;;0.50;0.50;;;2.60;99.90;;;;;;5033216;28;20425;-93
2022/03/22 04:50:01;;;;;;;0.50;0.50;;;2.60;99.90;;;;;;5026956;28;20486;-93
2022/03/22 04:57:54;;;;;;;0.50;0.50;;;2.80;99.90;;;;;;5034000;28;20531;-92
2022/03/22 05:00:20;;;;;;;0.50;0.50;;;2.90;99.90;;;;;;5031857;28;20473;-93
2022/03/22 05:02:47;;;;;;;0.50;0.50;;;2.70;99.90;;;;;;5033372;28;20187;-92
2022/03/22 05:05:14;;;;;;;0.50;0.50;;;2.70;99.90;;;;;;5033387;28;20440;-93
2022/03/22 05:07:40;;;;;;;0.47;0.47;;;2.70;99.90;;;;;;5032890;28;20434;-93
2022/03/22 05:10:06;;;;;;;0.40;0.40;;;2.60;99.90;;;;;;5034167;28;20480;-93
2022/03/22 05:12:31;;;;;;;0.50;0.50;;;2.70;99.90;;;;;;5033195;28;20187;-92
2022/03/22 05:14:57;;;;;;;0.50;0.50;;;2.50;99.90;;;;;;5033485;28;20423;-93
2022/03/22 05:17:23;;;;;;;0.50;0.50;;;2.50;99.90;;;;;;5025143;28;20231;-93
2022/03/22 05:19:50;;;;;;;0.40;0.40;;;2.60;99.90;;;;;;5015379;28;20819;-93
2022/03/22 05:22:17;;;;;;;0.50;0.50;;;2.70;99.90;;;;;;5033377;28;20462;-92
2022/03/22 05:24:43;;;;;;;0.50;0.50;;;2.70;99.90;;;;;;5029259;28;20504;-93
2022/03/22 05:27:09;;;;;;;0.50;0.50;;;2.80;99.90;;;;;;5031390;28;20457;-93
2022/03/22 05:29:38;;;;;;;0.50;0.50;;;2.70;99.90;;;;;;5016503;28;20525;-94
2022/03/22 05:32:04;;;;;;;0.50;0.50;;;2.70;99.90;;;;;;5023141;28;20787;-93
2022/03/22 05:34:30;;;;;;;0.50;0.50;;;2.70;99.90;;;;;;5033261;28;20442;-93
2022/03/22 05:36:55;;;;;;;0.50;0.50;;;2.70;99.90;;;;;;5033924;28;20413;-92
2022/03/22 05:39:26;;;;;;;0.50;0.50;;;2.70;99.90;;;;;;5031327;28;20192;-93
2022/03/22 05:41:52;;;;;;;0.50;0.50;;;2.60;99.90;;;;;;5032859;28;20188;-93
2022/03/22 05:44:20;;;;;;;0.50;0.50;;;2.50;99.90;;;;;;5031883;28;20442;-93
2022/03/22 05:46:45;;;;;;;0.50;0.50;;;2.60;99.90;;;;;;5032918;28;20187;-93
2022/03/22 05:49:13;;;;;;;0.50;0.50;;;2.50;99.90;;;;;;5031095;28;20540;-92
2022/03/22 05:51:39;;;;;;;0.50;0.50;;;2.50;99.90;;;;;;5030730;28;21826;-92
2022/03/22 05:54:04;;;;;;;0.50;0.50;;;2.50;99.90;;;;;;5022581;28;20513;-94
2022/03/22 05:56:30;;;;;;;0.50;0.50;;;2.60;99.90;;;;;;5032412;28;20179;-94
2022/03/22 05:58:58;;;;;;;0.50;0.50;;;2.60;99.90;;;;;;5031550;28;20200;-94
2022/03/22 06:01:24;;;;;;;0.50;0.50;;;2.70;99.90;;;;;;5021552;28;20183;-93
2022/03/22 06:03:50;;;;;;;0.50;0.50;;;2.70;99.90;;;;;;5033577;28;20500;-93
2022/03/22 06:06:16;;;;;;;0.50;0.50;;;2.70;99.90;;;;;;5023458;28;20671;-92
2022/03/22 06:08:42;;;;;;;0.50;0.50;;;2.90;99.90;;;;;;5029007;28;20482;-92
2022/03/22 06:11:08;;;;;;;0.50;0.50;;;3.30;99.90;;;;;;5027579;28;20195;-93
2022/03/22 06:13:33;;;;;;;0.50;0.50;;;3.80;98.50;;;;;;5015715;28;20180;-92
2022/03/22 06:15:59;;;;;;;0.50;0.50;;;4.00;97.40;;;;;;5025780;28;20451;-93
2022/03/22 06:18:24;;;;;;;0.50;0.50;;;4.10;96.80;;;;;;5019061;28;20210;-93
2022/03/22 06:20:50;;;;;;;0.43;0.43;;;4.20;96.50;;;;;;5027666;28;20192;-92
2022/03/22 06:23:17;;;;;;;0.50;0.50;;;4.30;95.80;;;;;;5031676;28;20198;-92
2022/03/22 06:25:43;;;;;;;0.50;0.50;;;4.30;96.20;;;;;;5014261;28;20188;-93
2022/03/22 06:28:09;;;;;;;0.40;0.40;;;4.40;96.30;;;;;;5043685;28;20483;-93
2022/03/22 06:30:36;;;;;;;0.50;0.50;;;4.50;95.60;;;;;;5014267;28;20438;-92
2022/03/22 06:33:13;;;;;;;0.40;0.40;;;4.60;95.30;;;;;;5031019;28;20536;-93
2022/03/22 06:35:40;;;;;;;0.40;0.40;;;4.70;95.40;;;;;;5026605;28;20793;-92
2022/03/22 06:38:06;;;;;;;0.40;0.40;;;4.70;94.90;;;;;;5014502;28;20976;-91
2022/03/22 06:40:37;;;;;;;0.40;0.40;;;4.80;94.30;;;;;;5031108;28;20500;-93
2022/03/22 06:43:08;;;;;;;0.40;0.40;;;4.80;96.00;;;;;;5032773;28;20399;-93
2022/03/22 06:45:34;;;;;;;0.40;0.40;;;4.90;95.50;;;;;;5029848;28;21030;-91
2022/03/22 06:48:00;;;;;;;0.40;0.40;;;4.90;96.50;;;;;;5031797;28;20484;-93
2022/03/22 06:50:26;;;;;;;0.50;0.50;;;4.90;97.60;;;;;;5029209;28;20985;-93
2022/03/22 06:52:53;;;;;;;0.37;0.37;;;4.90;96.30;;;;;;5017231;28;20270;-94
2022/03/22 06:55:22;;;;;;;0.40;0.40;;;5.00;95.90;;;;;;5031491;28;20830;-93
2022/03/22 06:57:50;;;;;;;0.40;0.40;;;5.00;95.10;;;;;;5029330;28;20439;-93
2022/03/22 07:00:17;;;;;;;0.40;0.40;;;5.20;93.60;;;;;;5012167;28;20454;-93
2022/03/22 07:02:42;;;;;;;0.40;0.40;;;5.30;93.20;;;;;;5028767;28;20430;-92
2022/03/22 07:05:09;;;;;;;0.40;0.40;;;5.40;93.20;;;;;;5030829;28;20466;-93
2022/03/22 07:07:35;;;;;;;0.40;0.40;;;5.40;93.50;;;;;;5014151;28;20180;-93
2022/03/22 07:10:01;;;;;;;0.40;0.40;;;5.50;92.50;;;;;;5029596;28;20483;-92
2022/03/22 07:12:27;;;;;;;0.40;0.40;;;5.60;92.60;;;;;;5020810;28;20446;-91
2022/03/22 07:14:53;;;;;;;0.43;0.43;;;5.60;92.10;;;;;;5030047;28;20450;-93
2022/03/22 07:17:19;;;;;;;0.30;0.30;;;5.70;91.40;;;;;;5013421;28;20184;-92
2022/03/22 07:19:44;;;;;;;0.40;0.40;;;5.80;90.80;;;;;;5027152;28;20465;-94
2022/03/22 07:22:13;;;;;;;0.40;0.40;;;5.90;91.20;;;;;;5031106;28;20673;-92
2022/03/22 07:24:38;;;;;;;0.40;0.40;;;6.00;90.70;;;;;;5029144;28;20266;-92
2022/03/22 07:27:04;;;;;;;0.40;0.40;;;6.00;90.90;;;;;;5031952;28;20470;-92
2022/03/22 07:29:31;;;;;;;0.40;0.40;;;6.10;90.60;;;;;;5029434;28;20695;-92
2022/03/22 07:31:59;;;;;;;0.40;0.40;;;6.20;91.30;;;;;;5028905;28;20442;-88
2022/03/22 07:34:26;;;;;;;2.10;2.10;;;6.40;90.70;;;;;;5022058;28;20453;-89
2022/03/22 07:36:52;;;;;;;2.60;2.60;;;6.50;91.60;;;;;;5029706;28;20446;-89
2022/03/22 07:39:20;;;;;;;2.80;2.80;;;6.60;90.30;;;;;;5030466;28;20437;-89
2022/03/22 07:41:46;;;;;;;2.60;2.60;;;6.60;90.00;;;;;;5009731;28;20517;-90
2022/03/22 07:44:12;;;;;;;1.90;1.90;;;6.80;90.00;;;;;;5030791;28;20933;-90
2022/03/22 07:46:39;;;;;;;3.27;3.27;;;6.90;90.90;;;;;;5009989;28;20443;-91
2022/03/22 07:54:33;;;;;;;2.00;2.00;;;7.10;89.30;;;;;;5049498;28;20509;-91
2022/03/22 07:56:58;;;;;;;0.30;0.30;;;7.20;89.60;;;;;;5033714;28;20445;-91
2022/03/22 07:59:25;;;;;;;0.97;0.97;;;7.30;89.40;;;;;;5014577;28;20893;-92
2022/03/22 08:01:51;;;;;;;2.20;2.20;;;7.30;87.70;;;;;;5033179;28;20194;-89
2022/03/22 08:04:17;;;;;;;1.30;1.30;;;7.30;86.60;;;;;;5009683;28;20442;-91
2022/03/22 08:06:43;;;;;;;1.20;1.20;;;7.40;87.00;;;;;;5013186;28;20408;-90
2022/03/22 08:09:09;;;;;;;1.13;1.13;;;7.60;86.80;;;;;;5017534;28;20539;-90
2022/03/22 08:11:34;;;;;;;0.77;0.77;;;7.70;85.90;;;;;;5031852;28;20993;-87
2022/03/22 08:14:02;;;;;;;1.70;1.70;;;7.90;86.10;;;;;;5014573;28;20183;-90
2022/03/22 08:16:28;;;;;;;0.30;0.30;;;8.00;85.90;;;;;;5033321;28;20647;-90
2022/03/22 08:18:54;;;;;;;0.27;0.27;;;8.10;85.30;;;;;;5016043;28;20508;-88
2022/03/22 08:21:20;;;;;;;0.30;0.30;;;8.30;85.00;;;;;;5027758;28;20930;-88
2022/03/22 08:23:45;;;;;;;0.30;0.30;;;8.40;86.80;;;;;;5025979;28;20442;-88
2022/03/22 08:26:11;;;;;;;0.30;0.30;;;8.60;86.10;;;;;;5053175;28;20266;-87
2022/03/22 08:28:36;;;;;;;0.20;0.20;;;8.60;85.10;;;;;;5049089;28;20566;-88
2022/03/22 08:31:02;;;;;;;0.30;0.30;;;8.80;86.00;;;;;;5035562;28;20219;-90
2022/03/22 08:33:28;;;;;;;0.30;0.30;;;8.70;85.40;;;;;;5050983;28;20182;-89
2022/03/22 08:35:54;;;;;;;0.20;0.20;;;8.90;86.20;;;;;;5043010;28;20283;-88
2022/03/22 08:38:20;;;;;;;0.30;0.30;;;9.00;87.00;;;;;;5032849;28;20600;-89
2022/03/22 08:40:50;;;;;;;0.30;0.30;;;9.00;84.60;;;;;;5036436;28;20252;-89
2022/03/22 08:43:16;;;;;;;0.30;0.30;;;9.20;84.10;;;;;;5050140;28;20756;-89
2022/03/22 08:45:42;;;;;;;0.23;0.23;;;9.40;83.30;;;;;;5044853;28;20997;-87
2022/03/22 08:48:12;;;;;;;0.20;0.20;;;9.70;83.80;;;;;;5046290;28;20480;-88
2022/03/22 08:50:42;;;;;;;0.20;0.20;;;10.00;83.40;;;;;;5039332;28;20207;-88
2022/03/22 08:53:07;;;;;;;0.20;0.20;;;10.20;84.40;;;;;;5012134;28;20789;-88
2022/03/22 08:55:33;;;;;;;0.20;0.20;;;10.00;80.40;;;;;;5013106;28;20481;-90
2022/03/22 08:58:05;;;;;;;0.20;0.20;;;10.40;86.20;;;;;;5038184;28;20554;-88
2022/03/22 09:00:32;;;;;;;0.20;0.20;;;10.80;83.80;;;;;;5025004;28;20197;-88
2022/03/22 09:02:58;;;;;;;0.20;0.20;;;11.10;81.30;;;;;;5033188;28;20909;-87
2022/03/22 09:08:07;;;;;;;0.30;0.30;;;11.60;81.20;;;;;;5032635;28;20552;-89
2022/03/22 09:10:34;;;;;;;0.20;0.20;;;11.60;80.20;;;;;;5034118;28;20461;-89
2022/03/22 09:13:01;;;;;;;0.10;0.10;;;11.90;81.80;;;;;;5025627;28;20187;-89
2022/03/22 09:15:28;;;;;;;0.27;0.27;;;12.00;80.20;;;;;;5033805;28;21011;-89
2022/03/22 09:17:55;;;;;;;0.40;0.40;;;12.20;77.50;;;;;;5031415;28;20504;-89
2022/03/22 09:20:21;;;;;;;0.90;0.90;;;12.50;81.30;;;;;;5015214;28;20533;-90
2022/03/22 09:22:49;;;;;;;0.87;0.87;;;12.40;77.40;;;;;;5028375;28;20538;-91
2022/03/22 09:25:16;;;;;;;0.80;0.80;;;12.40;75.90;;;;;;5028124;28;20197;-89
2022/03/22 09:27:42;;;;;;;1.03;1.03;;;12.20;76.40;;;;;;5026390;28;20782;-88
2022/03/22 09:30:09;;;;;;;0.50;0.50;;;12.70;77.70;;;;;;5011421;28;20482;-86
2022/03/22 09:32:35;;;;;;;0.37;0.37;;;13.00;75.40;;;;;;5010427;28;20958;-89
2022/03/22 09:35:01;;;;;;;0.70;0.70;;;13.30;76.10;;;;;;5028990;28;20477;-89
2022/03/22 09:37:31;;;;;;;0.20;0.17;;;13.20;73.10;;;;;;5031235;28;20446;-90
2022/03/22 09:39:57;;;;;;;0.20;0.20;;;13.00;73.70;;;;;;5026365;28;20187;-90
2022/03/22 09:42:23;;;;;;;0.10;0.10;;;13.20;74.40;;;;;;5026672;28;20975;-90
2022/03/22 09:44:50;;;;;;;0.10;0.10;;;13.80;76.20;;;;;;5027510;28;20553;-88
2022/03/22 09:47:16;;;;;;;0.10;0.10;;;14.00;72.70;;;;;;5028995;28;20445;-88
2022/03/22 09:49:43;;;;;;;0.10;0.10;;;14.20;73.10;;;;;;5026028;28;20569;-90
2022/03/22 09:52:09;;;;;;;0.10;0.10;;;14.40;74.00;;;;;;5027908;28;20449;-90
2022/03/22 09:54:35;;;;;;;0.10;0.10;;;14.60;71.90;;;;;;5025763;28;20466;-89
2022/03/22 09:57:04;;;;;;;0.10;0.10;;;14.50;72.30;;;;;;5029056;28;20793;-88
2022/03/22 09:59:31;;;;;;;0.10;0.10;;;14.90;74.30;;;;;;5030195;28;20188;-87
2022/03/22 10:02:00;;;;;;;0.10;0.10;;;15.20;72.70;;;;;;5025134;28;22088;-89
2022/03/22 10:04:39;;;;;;;0.10;0.10;;;15.40;73.00;;;;;;5010051;28;20446;-90
2022/03/22 10:07:06;;;;;;;0.10;0.10;;;15.50;70.60;;;;;;5028643;28;20464;-91
2022/03/22 10:09:36;;;;;;;0.10;0.10;;;15.80;69.90;;;;;;5029339;28;20486;-92
2022/03/22 10:12:03;;;;;;;0.10;0.10;;;15.80;70.10;;;;;;5018156;28;20441;-90
2022/03/22 10:14:40;;;;;;;0.10;0.10;;;16.00;72.90;;;;;;5026927;28;20446;-91
2022/03/22 10:17:15;;;;;;;0.10;0.10;;;16.30;71.00;;;;;;5025993;28;20459;-89
2022/03/22 10:19:47;;;;;;;0.10;0.10;;;16.70;67.80;;;;;;5026971;28;20449;-90
2022/03/22 10:22:12;;;;;;;0.10;0.10;;;17.10;70.20;;;;;;5030815;28;20468;-91
2022/03/22 10:24:43;;;;;;;0.10;0.10;;;17.50;72.30;;;;;;5029529;28;20475;-92
2022/03/22 10:27:26;;;;;;;0.10;0.10;;;17.30;68.10;;;;;;5027053;28;20192;-91
2022/03/22 10:29:53;;;;;;;0.10;0.10;;;17.70;69.20;;;;;;5022790;28;20513;-90
2022/03/22 10:32:32;;;;;;;0.10;0.10;;;17.90;68.20;;;;;;5026686;28;20452;-91
2022/03/22 10:35:08;;;;;;;0.10;0.10;;;17.40;65.10;;;;;;5015734;28;20469;-90
2022/03/22 10:37:34;;;;;;;0.10;0.10;;;17.50;65.30;;;;;;5021320;28;20453;-89
2022/03/22 10:39:59;;;;;;;0.10;0.10;;;17.80;64.80;;;;;;5027400;28;20442;-91
2022/03/22 10:42:27;;;;;;;0.10;0.10;;;17.60;64.70;;;;;;5027947;28;20741;-90
2022/03/22 10:44:58;;;;;;;0.10;0.10;;;17.80;65.00;;;;;;5031073;28;20686;-91
2022/03/22 10:47:26;;;;;;;0.10;0.10;;;18.10;64.50;;;;;;5029629;28;20462;-90
2022/03/22 10:50:05;;;;;;;0.10;0.10;;;18.40;69.10;;;;;;5024879;28;20489;-90
2022/03/22 10:52:31;;;;;;;0.10;0.10;;;18.50;66.70;;;;;;5033703;28;20426;-90
2022/03/22 10:54:57;;;;;;;0.10;0.10;;;19.00;63.70;;;;;;5031071;28;20440;-91
2022/03/22 10:57:37;;;;;;;0.10;0.00;;;19.30;62.50;;;;;;5024969;28;20800;-92
2022/03/22 11:00:08;;;;;;;0.10;0.00;;;19.40;61.60;;;;;;5008763;28;20179;-92
2022/03/22 11:02:36;;;;;;;0.10;0.10;;;19.30;62.50;;;;;;5016367;28;20430;-92
2022/03/22 11:05:03;;;;;;;0.10;0.00;;;19.50;62.50;;;;;;5021151;28;20482;-91
2022/03/22 11:07:33;;;;;;;0.10;0.00;;;19.70;63.90;;;;;;5031631;28;20536;-92
2022/03/22 11:09:59;;;;;;;0.10;0.10;;;19.60;64.30;;;;;;5033357;28;20511;-91
2022/03/22 11:12:26;;;;;;;0.10;0.10;;;20.10;61.70;;;;;;5036788;28;20864;-90
2022/03/22 11:14:51;;;;;;;0.10;0.00;;;19.80;60.10;;;;;;5034893;28;20178;-90
2022/03/22 11:17:17;;;;;;;0.10;0.10;;;19.80;59.20;;;;;;5030385;28;20455;-90
2022/03/22 11:19:44;;;;;;;0.10;0.00;;;19.30;58.80;;;;;;5034188;28;20188;-91
2022/03/22 11:22:10;;;;;;;0.10;0.00;;;19.60;61.30;;;;;;5031756;28;20191;-90
2022/03/22 11:24:38;;;;;;;0.10;0.00;;;20.00;60.50;;;;;;5029373;28;20493;-91
2022/03/22 11:27:06;;;;;;;0.10;0.00;;;20.30;61.50;;;;;;5033006;28;20183;-90
2022/03/22 11:29:32;;;;;;;0.10;0.00;;;20.50;60.90;;;;;;5029474;28;20537;-91
2022/03/22 11:34:44;;;;;;;0.10;0.00;;;20.90;59.20;;;;;;5029700;28;20492;-92
2022/03/22 11:37:09;;;;;;;0.10;0.00;;;21.10;58.90;;;;;;5021793;28;20439;-90
2022/03/22 11:42:25;;;;;;;0.10;0.00;;;21.00;58.90;;;;;;5032615;28;20222;-90
2022/03/22 11:44:58;;;;;;;0.10;0.00;;;21.80;60.10;;;;;;5025491;28;20474;-90
2022/03/22 11:47:25;;;;;;;0.10;0.00;;;21.60;56.60;;;;;;5027897;28;21255;-90
2022/03/22 11:50:03;;;;;;;0.10;0.00;;;21.40;56.70;;;;;;5029441;28;20494;-90
2022/03/22 11:52:35;;;;;;;0.10;0.00;;;21.30;57.00;;;;;;5030918;28;20437;-89
2022/03/22 11:55:09;;;;;;;0.10;0.00;;;21.20;57.20;;;;;;5032541;28;20528;-89
2022/03/22 11:57:50;;;;;;;0.10;0.00;;;21.10;55.90;;;;;;5027725;28;20536;-89
2022/03/22 12:00:21;;;;;;;0.10;0.00;;;21.50;56.20;;;;;;5030608;28;20989;-89
2022/03/22 12:02:52;;;;;;;0.10;0.00;;;21.70;55.90;;;;;;5031214;28;20473;-87
2022/03/22 12:05:23;;;;;;;0.10;0.00;;;21.00;55.50;;;;;;5017808;28;20869;-90
2022/03/22 12:07:50;;;;;;;0.10;0.00;;;21.50;56.00;;;;;;5029445;28;20446;-87
2022/03/22 12:10:18;;;;;;;0.10;0.00;;;21.50;56.10;;;;;;5019021;28;21080;-87
2022/03/22 12:12:49;;;;;;;0.10;0.00;;;21.50;54.90;;;;;;5030806;28;20458;-88
2022/03/22 12:15:16;;;;;;;0.10;0.00;;;21.30;55.80;;;;;;5030310;28;20871;-88
2022/03/22 12:17:42;;;;;;;0.10;0.00;;;21.70;57.90;;;;;;5031499;28;20437;-88
2022/03/22 12:20:14;;;;;;;0.10;0.00;;;22.30;57.10;;;;;;5001729;28;20454;-91
2022/03/22 12:22:45;;;;;;;0.10;0.00;;;22.70;55.60;;;;;;5031079;28;20783;-91
2022/03/22 12:25:12;;;;;;;0.10;0.00;;;22.80;54.90;;;;;;5023237;28;20450;-91
2022/03/22 12:28:00;;;;;;;0.10;0.00;;;23.30;58.70;;;;;;5028832;28;20479;-89
2022/03/22 12:30:31;;;;;;;0.10;0.00;;;23.40;54.40;;;;;;5028219;28;20465;-90
2022/03/22 12:33:02;;;;;;;0.10;0.00;;;22.50;53.60;;;;;;5031977;28;20998;-90
2022/03/22 12:35:29;;;;;;;0.10;0.00;;;22.00;54.30;;;;;;5030744;28;20461;-90
2022/03/22 12:37:57;;;;;;;0.10;0.00;;;21.80;55.50;;;;;;5026759;28;20933;-91
2022/03/22 12:40:23;;;;;;;0.10;0.00;;;22.80;55.20;;;;;;5025288;28;20537;-90
2022/03/22 12:42:51;;;;;;;0.10;0.00;;;22.60;54.80;;;;;;5025813;28;20457;-91
2022/03/22 12:45:18;;;;;;;0.10;0.00;;;23.00;55.40;;;;;;5012769;28;21020;-90
2022/03/22 12:47:45;;;;;;;0.10;0.00;;;22.90;54.30;;;;;;5030938;28;20477;-86
2022/03/22 12:50:13;;;;;;;0.10;0.00;;;23.30;54.20;;;;;;5022347;28;20582;-89
2022/03/22 12:52:40;;;;;;;0.10;0.00;;;22.30;54.20;;;;;;5022045;28;20442;-92
2022/03/22 12:55:07;;;;;;;0.10;0.00;;;22.40;55.70;;;;;;5023482;28;20458;-92
2022/03/22 12:57:34;;;;;;;0.10;0.00;;;22.40;56.90;;;;;;5001437;28;20438;-90
2022/03/22 13:00:00;;;;;;;0.10;0.00;;;23.40;55.00;;;;;;5013227;28;20446;-88
2022/03/22 13:02:26;;;;;;;0.10;0.00;;;22.80;53.80;;;;;;5026863;28;20450;-89
2022/03/22 13:04:53;;;;;;;0.10;0.00;;;22.90;56.20;;;;;;5024728;28;20493;-91
2022/03/22 13:07:27;;;;;;;0.10;0.00;;;23.30;54.90;;;;;;5029323;28;20190;-91
2022/03/22 13:12:45;;;;;;;0.10;0.00;;;23.90;56.70;;;;;;5027308;28;20429;-90
2022/03/22 13:15:17;;;;;;;0.10;0.00;;;23.80;56.20;;;;;;5025193;28;20449;-90
2022/03/22 13:17:47;;;;;;;0.10;0.00;;;23.80;55.90;;;;;;5031193;28;20433;-91
2022/03/22 13:20:24;;;;;;;0.10;0.00;;;23.50;54.80;;;;;;5023685;28;20443;-90
2022/03/22 13:22:53;;;;;;;0.10;0.00;;;23.90;56.90;;;;;;5025884;28;20588;-90
2022/03/22 13:25:24;;;;;;;0.10;0.00;;;23.60;56.70;;;;;;5029104;28;20956;-92
2022/03/22 13:27:57;;;;;;;0.10;0.00;;;23.50;54.80;;;;;;5015105;28;20791;-93
2022/03/22 13:30:25;;;;;;;0.10;0.00;;;23.60;56.00;;;;;;5020881;28;20482;-90